sensor_id;sensor_type;location;lat;lon;timestamp;P1;durP1;ratioP1;P2;durP2;ratioP2
10582;SDS011;33679;51.218;6.786;2023-05-07T00:00:50;5.33;;;3.80;;
10582;SDS011;33679;51.218;6.786;2023-05-07T00:03:25;6.90;;;3.90;;
10582;SDS011;33679;51.218;6.786;2023-05-07T00:05:58;5.63;;;3.63;;
10582;SDS011;33679;51.218;6.786;2023-05-07T00:08:30;7.60;;;3.90;;
10582;SDS011;33679;51.218;6.786;2023-05-07T00:11:03;5.93;;;4.37;;
10582;SDS011;33679;51.218;6.786;2023-05-07T00:13:35;3.47;;;3.17;;
10582;SDS011;33679;51.218;6.786;2023-05-07T00:16:09;6.63;;;3.27;;
10582;SDS011;33679;51.218;6.786;2023-05-07T00:18:43;5.23;;;3.40;;
10582;SDS011;33679;51.218;6.786;2023-05-07T00:21:16;5.30;;;3.20;;
10582;SDS011;33679;51.218;6.786;2023-05-07T00:23:48;5.50;;;3.37;;
10582;SDS011;33679;51.218;6.786;2023-05-07T00:26:20;6.33;;;3.73;;
10582;SDS011;33679;51.218;6.786;2023-05-07T00:28:55;3.80;;;2.87;;
10582;SDS011;33679;51.218;6.786;2023-05-07T00:31:29;5.37;;;3.07;;
10582;SDS011;33679;51.218;6.786;2023-05-07T00:34:01;3.00;;;2.53;;
10582;SDS011;33679;51.218;6.786;2023-05-07T00:36:33;4.57;;;3.37;;
10582;SDS011;33679;51.218;6.786;2023-05-07T00:39:06;4.27;;;3.20;;
10582;SDS011;33679;51.218;6.786;2023-05-07T00:41:38;3.07;;;2.70;;
10582;SDS011;33679;51.218;6.786;2023-05-07T00:44:13;5.60;;;2.60;;
10582;SDS011;33679;51.218;6.786;2023-05-07T00:46:46;3.00;;;2.60;;
10582;SDS011;33679;51.218;6.786;2023-05-07T00:49:22;4.17;;;2.87;;
10582;SDS011;33679;51.218;6.786;2023-05-07T00:51:57;3.97;;;2.77;;
10582;SDS011;33679;51.218;6.786;2023-05-07T00:54:30;4.13;;;2.63;;
10582;SDS011;33679;51.218;6.786;2023-05-07T00:57:04;3.23;;;2.93;;
10582;SDS011;33679;51.218;6.786;2023-05-07T00:59:36;2.90;;;2.60;;
10582;SDS011;33679;51.218;6.786;2023-05-07T01:02:11;5.40;;;3.03;;
10582;SDS011;33679;51.218;6.786;2023-05-07T01:04:43;4.23;;;3.13;;
10582;SDS011;33679;51.218;6.786;2023-05-07T01:07:16;4.20;;;2.83;;
10582;SDS011;33679;51.218;6.786;2023-05-07T01:09:43;3.27;;;2.50;;
10582;SDS011;33679;51.218;6.786;2023-05-07T01:12:19;2.60;;;2.37;;
10582;SDS011;33679;51.218;6.786;2023-05-07T01:14:52;2.90;;;2.40;;
10582;SDS011;33679;51.218;6.786;2023-05-07T01:17:28;4.83;;;2.70;;
10582;SDS011;33679;51.218;6.786;2023-05-07T01:20:01;4.10;;;3.07;;
10582;SDS011;33679;51.218;6.786;2023-05-07T01:22:37;4.23;;;2.87;;
10582;SDS011;33679;51.218;6.786;2023-05-07T01:25:11;3.53;;;2.70;;
10582;SDS011;33679;51.218;6.786;2023-05-07T01:27:48;5.03;;;2.73;;
10582;SDS011;33679;51.218;6.786;2023-05-07T01:30:21;3.53;;;3.20;;
10582;SDS011;33679;51.218;6.786;2023-05-07T01:32:56;4.73;;;2.90;;
10582;SDS011;33679;51.218;6.786;2023-05-07T01:35:32;2.97;;;2.73;;
10582;SDS011;33679;51.218;6.786;2023-05-07T01:38:10;2.87;;;2.47;;
10582;SDS011;33679;51.218;6.786;2023-05-07T01:40:43;6.60;;;3.13;;
10582;SDS011;33679;51.218;6.786;2023-05-07T01:43:25;2.83;;;2.30;;
10582;SDS011;33679;51.218;6.786;2023-05-07T01:45:57;3.03;;;2.40;;
10582;SDS011;33679;51.218;6.786;2023-05-07T01:48:31;5.60;;;3.40;;
10582;SDS011;33679;51.218;6.786;2023-05-07T01:51:05;7.20;;;3.20;;
10582;SDS011;33679;51.218;6.786;2023-05-07T01:53:41;3.83;;;2.83;;
10582;SDS011;33679;51.218;6.786;2023-05-07T01:56:14;3.00;;;2.70;;
10582;SDS011;33679;51.218;6.786;2023-05-07T01:58:47;3.63;;;2.87;;
10582;SDS011;33679;51.218;6.786;2023-05-07T02:01:19;3.93;;;2.70;;
10582;SDS011;33679;51.218;6.786;2023-05-07T02:03:53;3.50;;;2.80;;
10582;SDS011;33679;51.218;6.786;2023-05-07T02:06:29;3.13;;;2.80;;
10582;SDS011;33679;51.218;6.786;2023-05-07T02:09:08;3.80;;;2.80;;
10582;SDS011;33679;51.218;6.786;2023-05-07T02:11:44;3.30;;;2.60;;
10582;SDS011;33679;51.218;6.786;2023-05-07T02:14:17;6.00;;;3.17;;
10582;SDS011;33679;51.218;6.786;2023-05-07T02:16:50;3.20;;;2.70;;
10582;SDS011;33679;51.218;6.786;2023-05-07T02:19:23;6.70;;;2.77;;
10582;SDS011;33679;51.218;6.786;2023-05-07T02:21:55;4.00;;;2.73;;
10582;SDS011;33679;51.218;6.786;2023-05-07T02:24:29;4.10;;;3.57;;
10582;SDS011;33679;51.218;6.786;2023-05-07T02:27:02;3.30;;;2.73;;
10582;SDS011;33679;51.218;6.786;2023-05-07T02:29:34;4.23;;;2.70;;
10582;SDS011;33679;51.218;6.786;2023-05-07T02:32:07;3.40;;;3.10;;
10582;SDS011;33679;51.218;6.786;2023-05-07T02:34:39;3.67;;;2.87;;
10582;SDS011;33679;51.218;6.786;2023-05-07T02:37:11;4.60;;;2.70;;
10582;SDS011;33679;51.218;6.786;2023-05-07T02:39:45;3.40;;;2.37;;
10582;SDS011;33679;51.218;6.786;2023-05-07T02:42:17;3.90;;;2.80;;
10582;SDS011;33679;51.218;6.786;2023-05-07T02:44:49;4.17;;;2.67;;
10582;SDS011;33679;51.218;6.786;2023-05-07T02:47:22;5.50;;;2.80;;
10582;SDS011;33679;51.218;6.786;2023-05-07T02:49:57;3.00;;;2.60;;
10582;SDS011;33679;51.218;6.786;2023-05-07T02:52:29;2.70;;;2.30;;
10582;SDS011;33679;51.218;6.786;2023-05-07T02:55:04;3.10;;;2.60;;
10582;SDS011;33679;51.218;6.786;2023-05-07T02:57:37;2.60;;;2.40;;
10582;SDS011;33679;51.218;6.786;2023-05-07T03:00:11;3.90;;;2.70;;
10582;SDS011;33679;51.218;6.786;2023-05-07T03:02:55;3.83;;;2.70;;
10582;SDS011;33679;51.218;6.786;2023-05-07T03:05:29;3.93;;;2.87;;
10582;SDS011;33679;51.218;6.786;2023-05-07T03:08:02;3.47;;;2.93;;
10582;SDS011;33679;51.218;6.786;2023-05-07T03:10:37;2.80;;;2.40;;
10582;SDS011;33679;51.218;6.786;2023-05-07T03:13:10;3.03;;;2.60;;
10582;SDS011;33679;51.218;6.786;2023-05-07T03:15:44;4.17;;;3.20;;
10582;SDS011;33679;51.218;6.786;2023-05-07T03:18:16;3.23;;;2.57;;
10582;SDS011;33679;51.218;6.786;2023-05-07T03:20:51;3.40;;;2.83;;
10582;SDS011;33679;51.218;6.786;2023-05-07T03:23:26;4.10;;;2.50;;
10582;SDS011;33679;51.218;6.786;2023-05-07T03:25:59;3.47;;;3.10;;
10582;SDS011;33679;51.218;6.786;2023-05-07T03:28:33;2.90;;;2.60;;
10582;SDS011;33679;51.218;6.786;2023-05-07T03:31:08;2.60;;;2.40;;
10582;SDS011;33679;51.218;6.786;2023-05-07T03:33:49;3.77;;;2.73;;
10582;SDS011;33679;51.218;6.786;2023-05-07T03:36:23;2.90;;;2.23;;
10582;SDS011;33679;51.218;6.786;2023-05-07T03:38:57;2.70;;;2.20;;
10582;SDS011;33679;51.218;6.786;2023-05-07T03:41:38;5.20;;;2.40;;
10582;SDS011;33679;51.218;6.786;2023-05-07T03:44:10;2.60;;;2.03;;
10582;SDS011;33679;51.218;6.786;2023-05-07T03:46:43;2.63;;;2.23;;
10582;SDS011;33679;51.218;6.786;2023-05-07T03:49:16;2.87;;;2.30;;
10582;SDS011;33679;51.218;6.786;2023-05-07T03:51:48;4.13;;;2.33;;
10582;SDS011;33679;51.218;6.786;2023-05-07T03:54:21;2.43;;;2.20;;
10582;SDS011;33679;51.218;6.786;2023-05-07T03:56:55;4.23;;;2.47;;
10582;SDS011;33679;51.218;6.786;2023-05-07T03:59:27;3.03;;;2.30;;
10582;SDS011;33679;51.218;6.786;2023-05-07T04:02:00;2.60;;;2.00;;
10582;SDS011;33679;51.218;6.786;2023-05-07T04:04:35;2.20;;;1.80;;
10582;SDS011;33679;51.218;6.786;2023-05-07T04:07:07;3.57;;;2.33;;
10582;SDS011;33679;51.218;6.786;2023-05-07T04:09:44;2.97;;;2.50;;
10582;SDS011;33679;51.218;6.786;2023-05-07T04:12:21;2.77;;;2.03;;
10582;SDS011;33679;51.218;6.786;2023-05-07T04:14:55;2.80;;;2.40;;
10582;SDS011;33679;51.218;6.786;2023-05-07T04:17:28;3.33;;;2.17;;
10582;SDS011;33679;51.218;6.786;2023-05-07T04:20:03;2.30;;;2.10;;
10582;SDS011;33679;51.218;6.786;2023-05-07T04:22:38;2.93;;;2.00;;
10582;SDS011;33679;51.218;6.786;2023-05-07T04:25:11;2.93;;;1.90;;
10582;SDS011;33679;51.218;6.786;2023-05-07T04:27:46;3.37;;;2.23;;
10582;SDS011;33679;51.218;6.786;2023-05-07T04:30:20;3.23;;;2.20;;
10582;SDS011;33679;51.218;6.786;2023-05-07T04:32:55;2.27;;;2.00;;
10582;SDS011;33679;51.218;6.786;2023-05-07T04:35:30;3.13;;;2.00;;
10582;SDS011;33679;51.218;6.786;2023-05-07T04:38:04;5.73;;;2.43;;
10582;SDS011;33679;51.218;6.786;2023-05-07T04:40:37;1.90;;;1.67;;
10582;SDS011;33679;51.218;6.786;2023-05-07T04:43:12;2.40;;;2.00;;
10582;SDS011;33679;51.218;6.786;2023-05-07T04:45:50;3.13;;;2.40;;
10582;SDS011;33679;51.218;6.786;2023-05-07T04:48:25;1.90;;;1.70;;
10582;SDS011;33679;51.218;6.786;2023-05-07T04:50:58;3.77;;;2.20;;
10582;SDS011;33679;51.218;6.786;2023-05-07T04:53:31;2.00;;;1.60;;
10582;SDS011;33679;51.218;6.786;2023-05-07T04:56:03;2.93;;;1.80;;
10582;SDS011;33679;51.218;6.786;2023-05-07T04:58:44;3.30;;;2.40;;
10582;SDS011;33679;51.218;6.786;2023-05-07T05:01:16;1.90;;;1.80;;
10582;SDS011;33679;51.218;6.786;2023-05-07T05:03:49;2.07;;;1.90;;
10582;SDS011;33679;51.218;6.786;2023-05-07T05:06:23;2.67;;;1.83;;
10582;SDS011;33679;51.218;6.786;2023-05-07T05:08:58;2.00;;;1.80;;
10582;SDS011;33679;51.218;6.786;2023-05-07T05:11:32;3.00;;;1.90;;
10582;SDS011;33679;51.218;6.786;2023-05-07T05:14:06;2.93;;;2.30;;
10582;SDS011;33679;51.218;6.786;2023-05-07T05:16:38;4.80;;;2.20;;
10582;SDS011;33679;51.218;6.786;2023-05-07T05:19:11;3.30;;;2.00;;
10582;SDS011;33679;51.218;6.786;2023-05-07T05:21:45;3.00;;;2.10;;
10582;SDS011;33679;51.218;6.786;2023-05-07T05:24:20;2.40;;;2.20;;
10582;SDS011;33679;51.218;6.786;2023-05-07T05:26:52;3.50;;;2.77;;
10582;SDS011;33679;51.218;6.786;2023-05-07T05:29:27;2.57;;;1.80;;
10582;SDS011;33679;51.218;6.786;2023-05-07T05:31:59;2.37;;;2.17;;
10582;SDS011;33679;51.218;6.786;2023-05-07T05:34:33;2.30;;;2.10;;
10582;SDS011;33679;51.218;6.786;2023-05-07T05:37:07;2.10;;;1.90;;
10582;SDS011;33679;51.218;6.786;2023-05-07T05:39:42;3.10;;;1.80;;
10582;SDS011;33679;51.218;6.786;2023-05-07T05:42:14;2.73;;;2.03;;
10582;SDS011;33679;51.218;6.786;2023-05-07T05:44:48;2.50;;;1.97;;
10582;SDS011;33679;51.218;6.786;2023-05-07T05:47:20;3.60;;;2.13;;
10582;SDS011;33679;51.218;6.786;2023-05-07T05:49:53;3.53;;;2.30;;
10582;SDS011;33679;51.218;6.786;2023-05-07T05:52:25;2.63;;;1.80;;
10582;SDS011;33679;51.218;6.786;2023-05-07T05:54:59;2.53;;;1.87;;
10582;SDS011;33679;51.218;6.786;2023-05-07T05:57:31;2.30;;;1.97;;
10582;SDS011;33679;51.218;6.786;2023-05-07T06:00:06;3.20;;;2.37;;
10582;SDS011;33679;51.218;6.786;2023-05-07T06:02:48;2.73;;;2.43;;
10582;SDS011;33679;51.218;6.786;2023-05-07T06:05:26;1.80;;;1.70;;
10582;SDS011;33679;51.218;6.786;2023-05-07T06:08:01;2.87;;;1.83;;
10582;SDS011;33679;51.218;6.786;2023-05-07T06:10:37;3.17;;;2.27;;
10582;SDS011;33679;51.218;6.786;2023-05-07T06:13:11;4.33;;;2.43;;
10582;SDS011;33679;51.218;6.786;2023-05-07T06:15:48;3.83;;;2.10;;
10582;SDS011;33679;51.218;6.786;2023-05-07T06:18:20;2.73;;;2.13;;
10582;SDS011;33679;51.218;6.786;2023-05-07T06:20:55;2.07;;;1.87;;
10582;SDS011;33679;51.218;6.786;2023-05-07T06:23:31;2.20;;;2.00;;
10582;SDS011;33679;51.218;6.786;2023-05-07T06:26:05;2.90;;;1.63;;
10582;SDS011;33679;51.218;6.786;2023-05-07T06:28:43;2.50;;;1.97;;
10582;SDS011;33679;51.218;6.786;2023-05-07T06:31:19;2.53;;;2.03;;
10582;SDS011;33679;51.218;6.786;2023-05-07T06:34:05;3.53;;;2.20;;
10582;SDS011;33679;51.218;6.786;2023-05-07T06:36:41;1.83;;;1.60;;
10582;SDS011;33679;51.218;6.786;2023-05-07T06:39:33;3.03;;;2.30;;
10582;SDS011;33679;51.218;6.786;2023-05-07T06:42:08;6.13;;;2.40;;
10582;SDS011;33679;51.218;6.786;2023-05-07T06:44:45;2.40;;;2.17;;
10582;SDS011;33679;51.218;6.786;2023-05-07T06:47:21;3.47;;;2.23;;
10582;SDS011;33679;51.218;6.786;2023-05-07T06:49:57;4.63;;;2.50;;
10582;SDS011;33679;51.218;6.786;2023-05-07T06:52:34;2.17;;;1.70;;
10582;SDS011;33679;51.218;6.786;2023-05-07T06:55:16;2.37;;;1.70;;
10582;SDS011;33679;51.218;6.786;2023-05-07T06:57:50;2.40;;;1.90;;
10582;SDS011;33679;51.218;6.786;2023-05-07T07:00:23;2.07;;;1.70;;
10582;SDS011;33679;51.218;6.786;2023-05-07T07:03:00;2.00;;;1.80;;
10582;SDS011;33679;51.218;6.786;2023-05-07T07:05:35;2.00;;;1.33;;
10582;SDS011;33679;51.218;6.786;2023-05-07T07:08:08;8.37;;;5.33;;
10582;SDS011;33679;51.218;6.786;2023-05-07T07:10:41;2.50;;;2.10;;
10582;SDS011;33679;51.218;6.786;2023-05-07T07:13:13;2.13;;;1.50;;
10582;SDS011;33679;51.218;6.786;2023-05-07T07:15:46;3.40;;;1.77;;
10582;SDS011;33679;51.218;6.786;2023-05-07T07:18:21;1.60;;;1.50;;
10582;SDS011;33679;51.218;6.786;2023-05-07T07:20:57;2.20;;;1.63;;
10582;SDS011;33679;51.218;6.786;2023-05-07T07:23:30;2.80;;;1.60;;
10582;SDS011;33679;51.218;6.786;2023-05-07T07:26:03;2.20;;;1.83;;
10582;SDS011;33679;51.218;6.786;2023-05-07T07:28:44;2.10;;;1.90;;
10582;SDS011;33679;51.218;6.786;2023-05-07T07:31:20;1.60;;;1.40;;
10582;SDS011;33679;51.218;6.786;2023-05-07T07:33:57;1.97;;;1.50;;
10582;SDS011;33679;51.218;6.786;2023-05-07T07:36:29;1.97;;;1.70;;
10582;SDS011;33679;51.218;6.786;2023-05-07T07:39:07;1.70;;;1.53;;
10582;SDS011;33679;51.218;6.786;2023-05-07T07:41:40;2.90;;;2.03;;
10582;SDS011;33679;51.218;6.786;2023-05-07T07:44:13;2.57;;;1.70;;
10582;SDS011;33679;51.218;6.786;2023-05-07T07:46:50;3.73;;;1.83;;
10582;SDS011;33679;51.218;6.786;2023-05-07T07:49:25;4.43;;;2.33;;
10582;SDS011;33679;51.218;6.786;2023-05-07T07:51:58;2.63;;;1.70;;
10582;SDS011;33679;51.218;6.786;2023-05-07T07:54:32;3.00;;;2.03;;
10582;SDS011;33679;51.218;6.786;2023-05-07T07:57:08;2.27;;;1.80;;
10582;SDS011;33679;51.218;6.786;2023-05-07T07:59:41;3.63;;;2.23;;
10582;SDS011;33679;51.218;6.786;2023-05-07T08:02:15;3.93;;;2.23;;
10582;SDS011;33679;51.218;6.786;2023-05-07T08:04:50;2.67;;;2.10;;
10582;SDS011;33679;51.218;6.786;2023-05-07T08:07:22;4.13;;;2.20;;
10582;SDS011;33679;51.218;6.786;2023-05-07T08:09:58;2.67;;;1.80;;
10582;SDS011;33679;51.218;6.786;2023-05-07T08:12:31;3.73;;;2.37;;
10582;SDS011;33679;51.218;6.786;2023-05-07T08:15:03;2.23;;;2.03;;
10582;SDS011;33679;51.218;6.786;2023-05-07T08:17:37;4.63;;;2.80;;
10582;SDS011;33679;51.218;6.786;2023-05-07T08:20:11;2.60;;;2.00;;
10582;SDS011;33679;51.218;6.786;2023-05-07T08:22:46;2.63;;;1.83;;
10582;SDS011;33679;51.218;6.786;2023-05-07T08:25:34;3.00;;;1.70;;
10582;SDS011;33679;51.218;6.786;2023-05-07T08:28:12;2.13;;;1.67;;
10582;SDS011;33679;51.218;6.786;2023-05-07T08:30:45;2.33;;;2.00;;
10582;SDS011;33679;51.218;6.786;2023-05-07T08:33:20;3.00;;;1.77;;
10582;SDS011;33679;51.218;6.786;2023-05-07T08:35:54;2.47;;;1.90;;
10582;SDS011;33679;51.218;6.786;2023-05-07T08:38:27;2.83;;;1.70;;
10582;SDS011;33679;51.218;6.786;2023-05-07T08:40:59;2.70;;;1.70;;
10582;SDS011;33679;51.218;6.786;2023-05-07T08:43:34;2.70;;;1.87;;
10582;SDS011;33679;51.218;6.786;2023-05-07T08:46:09;3.60;;;2.00;;
10582;SDS011;33679;51.218;6.786;2023-05-07T08:48:47;1.73;;;1.63;;
10582;SDS011;33679;51.218;6.786;2023-05-07T08:51:22;1.77;;;1.63;;
10582;SDS011;33679;51.218;6.786;2023-05-07T08:53:55;2.43;;;1.93;;
10582;SDS011;33679;51.218;6.786;2023-05-07T08:56:33;9.27;;;5.97;;
10582;SDS011;33679;51.218;6.786;2023-05-07T08:59:09;3.20;;;2.40;;
10582;SDS011;33679;51.218;6.786;2023-05-07T09:01:49;4.23;;;1.97;;
10582;SDS011;33679;51.218;6.786;2023-05-07T09:04:21;2.13;;;1.70;;
10582;SDS011;33679;51.218;6.786;2023-05-07T09:06:55;2.90;;;1.70;;
10582;SDS011;33679;51.218;6.786;2023-05-07T09:09:35;2.50;;;1.90;;
10582;SDS011;33679;51.218;6.786;2023-05-07T09:12:11;3.10;;;1.70;;
10582;SDS011;33679;51.218;6.786;2023-05-07T09:14:46;2.40;;;1.70;;
10582;SDS011;33679;51.218;6.786;2023-05-07T09:17:19;1.77;;;1.67;;
10582;SDS011;33679;51.218;6.786;2023-05-07T09:19:53;2.53;;;1.33;;
10582;SDS011;33679;51.218;6.786;2023-05-07T09:22:27;1.70;;;1.60;;
10582;SDS011;33679;51.218;6.786;2023-05-07T09:25:06;2.90;;;2.10;;
10582;SDS011;33679;51.218;6.786;2023-05-07T09:27:41;3.37;;;2.10;;
10582;SDS011;33679;51.218;6.786;2023-05-07T09:30:14;2.80;;;2.27;;
10582;SDS011;33679;51.218;6.786;2023-05-07T09:32:47;5.00;;;3.90;;
10582;SDS011;33679;51.218;6.786;2023-05-07T09:35:23;7.27;;;3.90;;
10582;SDS011;33679;51.218;6.786;2023-05-07T09:38:02;3.73;;;2.60;;
10582;SDS011;33679;51.218;6.786;2023-05-07T09:40:38;3.13;;;2.13;;
10582;SDS011;33679;51.218;6.786;2023-05-07T09:43:15;1.97;;;1.40;;
10582;SDS011;33679;51.218;6.786;2023-05-07T09:46:01;1.67;;;1.37;;
10582;SDS011;33679;51.218;6.786;2023-05-07T09:51:43;1.43;;;1.33;;
10582;SDS011;33679;51.218;6.786;2023-05-07T09:54:27;1.50;;;1.40;;
10582;SDS011;33679;51.218;6.786;2023-05-07T09:57:02;3.63;;;1.60;;
10582;SDS011;33679;51.218;6.786;2023-05-07T09:59:38;1.83;;;1.40;;
10582;SDS011;33679;51.218;6.786;2023-05-07T10:02:15;3.23;;;1.93;;
10582;SDS011;33679;51.218;6.786;2023-05-07T10:04:55;2.70;;;1.30;;
10582;SDS011;33679;51.218;6.786;2023-05-07T10:07:40;4.70;;;1.60;;
10582;SDS011;33679;51.218;6.786;2023-05-07T10:10:15;2.17;;;1.70;;
10582;SDS011;33679;51.218;6.786;2023-05-07T10:12:50;2.63;;;1.57;;
10582;SDS011;33679;51.218;6.786;2023-05-07T10:15:37;1.70;;;1.60;;
10582;SDS011;33679;51.218;6.786;2023-05-07T10:18:10;8.00;;;2.83;;
10582;SDS011;33679;51.218;6.786;2023-05-07T10:20:52;5.33;;;2.47;;
10582;SDS011;33679;51.218;6.786;2023-05-07T10:23:26;1.70;;;1.50;;
10582;SDS011;33679;51.218;6.786;2023-05-07T10:26:08;2.33;;;1.23;;
10582;SDS011;33679;51.218;6.786;2023-05-07T10:28:46;3.37;;;1.40;;
10582;SDS011;33679;51.218;6.786;2023-05-07T10:34:29;2.13;;;1.30;;
10582;SDS011;33679;51.218;6.786;2023-05-07T10:37:13;1.97;;;1.60;;
10582;SDS011;33679;51.218;6.786;2023-05-07T10:39:46;5.73;;;1.40;;
10582;SDS011;33679;51.218;6.786;2023-05-07T10:42:22;1.63;;;1.30;;
10582;SDS011;33679;51.218;6.786;2023-05-07T10:45:14;1.97;;;1.60;;
10582;SDS011;33679;51.218;6.786;2023-05-07T10:54:02;3.00;;;2.10;;
10582;SDS011;33679;51.218;6.786;2023-05-07T10:56:59;3.10;;;1.50;;
10582;SDS011;33679;51.218;6.786;2023-05-07T11:07:36;2.73;;;1.57;;
10582;SDS011;33679;51.218;6.786;2023-05-07T11:10:22;1.87;;;1.33;;
10582;SDS011;33679;51.218;6.786;2023-05-07T11:16:42;2.07;;;1.60;;
10582;SDS011;33679;51.218;6.786;2023-05-07T11:19:51;2.33;;;1.60;;
10582;SDS011;33679;51.218;6.786;2023-05-07T11:22:43;1.50;;;1.30;;
10582;SDS011;33679;51.218;6.786;2023-05-07T11:25:52;2.17;;;1.30;;
10582;SDS011;33679;51.218;6.786;2023-05-07T11:28:36;12.27;;;8.90;;
10582;SDS011;33679;51.218;6.786;2023-05-07T11:31:11;2.13;;;1.93;;
10582;SDS011;33679;51.218;6.786;2023-05-07T11:33:45;2.67;;;2.00;;
10582;SDS011;33679;51.218;6.786;2023-05-07T11:36:47;2.20;;;1.40;;
10582;SDS011;33679;51.218;6.786;2023-05-07T11:39:32;2.80;;;1.40;;
10582;SDS011;33679;51.218;6.786;2023-05-07T11:42:06;3.27;;;1.83;;
10582;SDS011;33679;51.218;6.786;2023-05-07T11:44:42;1.53;;;1.37;;
10582;SDS011;33679;51.218;6.786;2023-05-07T11:47:30;2.50;;;1.53;;
10582;SDS011;33679;51.218;6.786;2023-05-07T11:50:03;3.33;;;1.63;;
10582;SDS011;33679;51.218;6.786;2023-05-07T11:52:37;2.17;;;1.53;;
10582;SDS011;33679;51.218;6.786;2023-05-07T11:55:10;2.77;;;1.83;;
10582;SDS011;33679;51.218;6.786;2023-05-07T11:57:42;13.03;;;10.63;;
10582;SDS011;33679;51.218;6.786;2023-05-07T12:00:18;5.40;;;4.17;;
10582;SDS011;33679;51.218;6.786;2023-05-07T12:02:52;2.53;;;1.73;;
10582;SDS011;33679;51.218;6.786;2023-05-07T12:05:24;1.40;;;1.30;;
10582;SDS011;33679;51.218;6.786;2023-05-07T12:07:57;4.40;;;2.00;;
10582;SDS011;33679;51.218;6.786;2023-05-07T12:10:29;1.57;;;1.47;;
10582;SDS011;33679;51.218;6.786;2023-05-07T12:13:02;2.43;;;1.70;;
10582;SDS011;33679;51.218;6.786;2023-05-07T12:15:34;2.30;;;2.10;;
10582;SDS011;33679;51.218;6.786;2023-05-07T12:18:09;1.63;;;1.40;;
10582;SDS011;33679;51.218;6.786;2023-05-07T12:20:45;2.40;;;2.10;;
10582;SDS011;33679;51.218;6.786;2023-05-07T12:23:17;2.70;;;1.90;;
10582;SDS011;33679;51.218;6.786;2023-05-07T12:25:50;7.03;;;3.23;;
10582;SDS011;33679;51.218;6.786;2023-05-07T12:28:23;2.33;;;1.53;;
10582;SDS011;33679;51.218;6.786;2023-05-07T12:31:01;2.87;;;1.90;;
10582;SDS011;33679;51.218;6.786;2023-05-07T12:34:33;1.90;;;1.40;;
10582;SDS011;33679;51.218;6.786;2023-05-07T12:37:10;3.57;;;2.27;;
10582;SDS011;33679;51.218;6.786;2023-05-07T12:39:47;1.97;;;1.80;;
10582;SDS011;33679;51.218;6.786;2023-05-07T12:42:20;1.90;;;1.43;;
10582;SDS011;33679;51.218;6.786;2023-05-07T12:44:54;2.03;;;1.47;;
10582;SDS011;33679;51.218;6.786;2023-05-07T12:47:26;4.73;;;2.60;;
10582;SDS011;33679;51.218;6.786;2023-05-07T12:50:01;4.07;;;2.17;;
10582;SDS011;33679;51.218;6.786;2023-05-07T12:52:36;1.83;;;1.60;;
10582;SDS011;33679;51.218;6.786;2023-05-07T12:55:09;2.33;;;1.90;;
10582;SDS011;33679;51.218;6.786;2023-05-07T12:57:45;2.30;;;2.10;;
10582;SDS011;33679;51.218;6.786;2023-05-07T13:00:32;2.40;;;2.00;;
10582;SDS011;33679;51.218;6.786;2023-05-07T13:03:05;2.83;;;1.83;;
10582;SDS011;33679;51.218;6.786;2023-05-07T13:05:39;2.97;;;2.20;;
10582;SDS011;33679;51.218;6.786;2023-05-07T13:08:11;2.60;;;1.70;;
10582;SDS011;33679;51.218;6.786;2023-05-07T13:10:43;2.03;;;1.83;;
10582;SDS011;33679;51.218;6.786;2023-05-07T13:13:16;2.17;;;1.80;;
10582;SDS011;33679;51.218;6.786;2023-05-07T13:15:48;2.73;;;1.67;;
10582;SDS011;33679;51.218;6.786;2023-05-07T13:18:24;2.47;;;2.10;;
10582;SDS011;33679;51.218;6.786;2023-05-07T13:20:57;2.97;;;1.77;;
10582;SDS011;33679;51.218;6.786;2023-05-07T13:23:33;2.10;;;1.63;;
10582;SDS011;33679;51.218;6.786;2023-05-07T13:26:06;2.83;;;1.83;;
10582;SDS011;33679;51.218;6.786;2023-05-07T13:28:38;4.73;;;1.80;;
10582;SDS011;33679;51.218;6.786;2023-05-07T13:31:13;3.30;;;2.00;;
10582;SDS011;33679;51.218;6.786;2023-05-07T13:33:45;3.07;;;2.27;;
10582;SDS011;33679;51.218;6.786;2023-05-07T13:36:19;2.63;;;2.07;;
10582;SDS011;33679;51.218;6.786;2023-05-07T13:38:54;2.33;;;2.13;;
10582;SDS011;33679;51.218;6.786;2023-05-07T13:41:26;3.70;;;2.07;;
10582;SDS011;33679;51.218;6.786;2023-05-07T13:43:59;2.80;;;2.20;;
10582;SDS011;33679;51.218;6.786;2023-05-07T13:46:31;3.23;;;1.97;;
10582;SDS011;33679;51.218;6.786;2023-05-07T13:49:04;2.67;;;2.20;;
10582;SDS011;33679;51.218;6.786;2023-05-07T13:51:38;1.73;;;1.60;;
10582;SDS011;33679;51.218;6.786;2023-05-07T13:54:10;1.93;;;1.70;;
10582;SDS011;33679;51.218;6.786;2023-05-07T13:56:43;2.33;;;1.60;;
10582;SDS011;33679;51.218;6.786;2023-05-07T13:59:18;4.63;;;1.80;;
10582;SDS011;33679;51.218;6.786;2023-05-07T14:01:50;3.27;;;1.90;;
10582;SDS011;33679;51.218;6.786;2023-05-07T14:04:23;3.57;;;2.43;;
10582;SDS011;33679;51.218;6.786;2023-05-07T14:06:57;2.33;;;2.13;;
10582;SDS011;33679;51.218;6.786;2023-05-07T14:09:29;5.30;;;3.83;;
10582;SDS011;33679;51.218;6.786;2023-05-07T14:12:01;10.80;;;7.30;;
10582;SDS011;33679;51.218;6.786;2023-05-07T14:14:34;17.60;;;11.40;;
10582;SDS011;33679;51.218;6.786;2023-05-07T14:17:06;31.37;;;24.60;;
10582;SDS011;33679;51.218;6.786;2023-05-07T14:19:41;13.93;;;11.40;;
10582;SDS011;33679;51.218;6.786;2023-05-07T14:22:18;15.33;;;6.10;;
10582;SDS011;33679;51.218;6.786;2023-05-07T14:24:53;7.07;;;4.83;;
10582;SDS011;33679;51.218;6.786;2023-05-07T14:27:25;6.03;;;3.37;;
10582;SDS011;33679;51.218;6.786;2023-05-07T14:29:58;7.30;;;4.70;;
10582;SDS011;33679;51.218;6.786;2023-05-07T14:32:35;6.57;;;3.50;;
10582;SDS011;33679;51.218;6.786;2023-05-07T14:35:08;7.63;;;5.10;;
10582;SDS011;33679;51.218;6.786;2023-05-07T14:37:45;8.47;;;5.20;;
10582;SDS011;33679;51.218;6.786;2023-05-07T14:40:17;6.50;;;4.80;;
10582;SDS011;33679;51.218;6.786;2023-05-07T14:42:52;6.10;;;4.33;;
10582;SDS011;33679;51.218;6.786;2023-05-07T14:45:24;6.03;;;4.80;;
10582;SDS011;33679;51.218;6.786;2023-05-07T14:47:56;8.23;;;4.87;;
10582;SDS011;33679;51.218;6.786;2023-05-07T14:50:29;8.33;;;4.50;;
10582;SDS011;33679;51.218;6.786;2023-05-07T14:53:04;5.23;;;4.30;;
10582;SDS011;33679;51.218;6.786;2023-05-07T14:55:37;7.77;;;5.20;;
10582;SDS011;33679;51.218;6.786;2023-05-07T14:58:17;6.53;;;4.30;;
10582;SDS011;33679;51.218;6.786;2023-05-07T15:00:49;6.50;;;4.13;;
10582;SDS011;33679;51.218;6.786;2023-05-07T15:03:22;7.97;;;4.27;;
10582;SDS011;33679;51.218;6.786;2023-05-07T15:05:55;11.63;;;4.87;;
10582;SDS011;33679;51.218;6.786;2023-05-07T15:08:29;7.23;;;4.17;;
10582;SDS011;33679;51.218;6.786;2023-05-07T15:11:04;6.97;;;4.50;;
10582;SDS011;33679;51.218;6.786;2023-05-07T15:13:38;6.40;;;4.60;;
10582;SDS011;33679;51.218;6.786;2023-05-07T15:16:11;9.67;;;4.47;;
10582;SDS011;33679;51.218;6.786;2023-05-07T15:18:44;7.17;;;4.83;;
10582;SDS011;33679;51.218;6.786;2023-05-07T15:21:16;5.27;;;4.30;;
10582;SDS011;33679;51.218;6.786;2023-05-07T15:23:50;5.90;;;4.90;;
10582;SDS011;33679;51.218;6.786;2023-05-07T15:26:23;7.67;;;5.13;;
10582;SDS011;33679;51.218;6.786;2023-05-07T15:28:55;11.67;;;6.93;;
10582;SDS011;33679;51.218;6.786;2023-05-07T15:31:28;5.30;;;4.23;;
10582;SDS011;33679;51.218;6.786;2023-05-07T15:34:01;11.17;;;6.40;;
10582;SDS011;33679;51.218;6.786;2023-05-07T15:36:34;6.67;;;5.13;;
10582;SDS011;33679;51.218;6.786;2023-05-07T15:39:08;8.10;;;4.47;;
10582;SDS011;33679;51.218;6.786;2023-05-07T15:41:41;7.60;;;5.30;;
10582;SDS011;33679;51.218;6.786;2023-05-07T15:44:13;8.33;;;4.70;;
10582;SDS011;33679;51.218;6.786;2023-05-07T15:46:46;4.47;;;3.53;;
10582;SDS011;33679;51.218;6.786;2023-05-07T15:49:20;5.77;;;4.20;;
10582;SDS011;33679;51.218;6.786;2023-05-07T15:51:53;7.00;;;4.60;;
10582;SDS011;33679;51.218;6.786;2023-05-07T15:54:26;5.67;;;4.40;;
10582;SDS011;33679;51.218;6.786;2023-05-07T15:56:59;6.97;;;4.60;;
10582;SDS011;33679;51.218;6.786;2023-05-07T15:59:31;5.53;;;4.40;;